createdAt,value
2023-01-12T00:02:22.507Z,97934.69
2023-01-12T00:04:50.266Z,97940.41
2023-01-12T00:07:18.185Z,97932.09
2023-01-12T00:09:45.822Z,97940.47
2023-01-12T00:12:13.497Z,97943.81
2023-01-12T00:14:41.132Z,97939.19
2023-01-12T00:17:09.190Z,97941.56
2023-01-12T00:19:38.774Z,97932.28
2023-01-12T00:22:11.566Z,97945.16
2023-01-12T00:24:49.562Z,97936.88
2023-01-12T00:27:20.111Z,97931.38
2023-01-12T00:29:49.655Z,97940.22
2023-01-12T00:32:20.407Z,97934.03
2023-01-12T00:34:47.947Z,97927.88
2023-01-12T00:37:15.534Z,97928.88
2023-01-12T00:39:53.068Z,97920.38
2023-01-12T00:42:46.523Z,97918.91
2023-01-12T00:45:23.269Z,97920.28
2023-01-12T00:47:51.454Z,97918.31
2023-01-12T00:50:19.769Z,97920.72
2023-01-12T00:52:47.384Z,97918.25
2023-01-12T00:55:14.972Z,97914.03
2023-01-12T00:57:42.764Z,97914.56
2023-01-12T01:00:11.061Z,97905.75
2023-01-12T01:02:38.616Z,97902.28
2023-01-12T01:05:06.494Z,97900.19
2023-01-12T01:07:34.664Z,97902.84
2023-01-12T01:10:02.161Z,97901.19
2023-01-12T01:12:29.705Z,97906.38
2023-01-12T01:14:57.192Z,97908.41
2023-01-12T01:17:24.693Z,97908.28
2023-01-12T01:19:52.196Z,97907.50
2023-01-12T01:22:19.745Z,97898.50
2023-01-12T01:24:50.205Z,97902.38
2023-01-12T01:27:17.679Z,97896.59
2023-01-12T01:29:45.279Z,97910.06
2023-01-12T01:32:12.775Z,97913.78
2023-01-12T01:34:41.081Z,97914.44
2023-01-12T01:37:08.540Z,97914.31
2023-01-12T01:39:36.053Z,97923.50
2023-01-12T01:42:03.601Z,97926.53
2023-01-12T01:44:30.969Z,97925.00
2023-01-12T01:47:08.306Z,97928.88
2023-01-12T01:49:44.888Z,97926.59
2023-01-12T01:52:25.409Z,97923.63
2023-01-12T01:55:13.937Z,97910.31
2023-01-12T01:58:06.965Z,97909.44
2023-01-12T02:03:21.487Z,97917.63
2023-01-12T02:05:51.059Z,97911.28
2023-01-12T02:08:32.033Z,97912.59
2023-01-12T02:11:01.314Z,97916.09
2023-01-12T02:13:49.815Z,97908.72
2023-01-12T02:16:27.717Z,97897.78
2023-01-12T02:19:22.652Z,97893.75
2023-01-12T02:21:59.373Z,97888.78
2023-01-12T02:24:51.361Z,97889.78
2023-01-12T02:27:52.598Z,97880.59
2023-01-12T02:31:03.045Z,97872.13
2023-01-12T02:33:48.881Z,97872.34
2023-01-12T02:36:30.850Z,97862.78
2023-01-12T02:39:29.764Z,97854.16
2023-01-12T02:42:31.376Z,97851.34
2023-01-12T02:45:33.120Z,97851.16
2023-01-12T02:48:21.749Z,97832.19
2023-01-12T02:51:13.537Z,97840.94
2023-01-12T02:53:51.953Z,97838.63
2023-01-12T02:56:44.030Z,97843.47
2023-01-12T02:59:27.904Z,97830.31
2023-01-12T03:02:01.375Z,97835.63
2023-01-12T03:04:31.626Z,97837.13
2023-01-12T03:06:58.964Z,97844.13
2023-01-12T03:09:38.579Z,97854.63
2023-01-12T03:12:14.507Z,97852.13
2023-01-12T03:14:47.083Z,97851.50
2023-01-12T03:17:31.013Z,97838.50
2023-01-12T03:20:30.058Z,97838.31
2023-01-12T03:23:11.660Z,97840.69
2023-01-12T03:25:43.964Z,97828.34
2023-01-12T03:28:17.202Z,97828.19
2023-01-12T03:30:56.480Z,97820.06
2023-01-12T03:33:26.041Z,97827.91
2023-01-12T03:36:29.596Z,97823.53
2023-01-12T03:39:14.687Z,97828.88
2023-01-12T03:42:07.669Z,97829.53
2023-01-12T03:45:09.625Z,97828.41
2023-01-12T03:47:40.392Z,97820.09
2023-01-12T03:50:16.568Z,97822.75
2023-01-12T03:52:46.019Z,97818.78
2023-01-12T03:55:19.603Z,97817.56
2023-01-12T03:57:49.210Z,97816.97
2023-01-12T04:00:20.225Z,97819.28
2023-01-12T04:02:47.707Z,97825.97
2023-01-12T04:05:16.296Z,97819.66
2023-01-12T04:07:43.793Z,97815.81
2023-01-12T04:10:11.592Z,97810.66
2023-01-12T04:12:39.135Z,97812.19
2023-01-12T04:15:07.239Z,97805.84
2023-01-12T04:17:34.761Z,97809.53
2023-01-12T04:20:02.773Z,97815.69
2023-01-12T04:22:45.432Z,97812.84
2023-01-12T04:25:20.032Z,97808.19
2023-01-12T04:28:04.250Z,97807.38
2023-01-12T04:30:33.911Z,97801.03
2023-01-12T04:33:09.169Z,97794.50
2023-01-12T04:35:36.693Z,97793.69
2023-01-12T04:38:08.632Z,97789.53
2023-01-12T04:40:36.135Z,97781.53
2023-01-12T04:43:08.686Z,97775.69
2023-01-12T04:45:41.454Z,97776.88
2023-01-12T04:48:12.456Z,97764.16
2023-01-12T04:50:41.109Z,97767.66
2023-01-12T04:53:11.066Z,97780.16
2023-01-12T04:55:41.571Z,97765.03
2023-01-12T04:58:09.363Z,97777.34
2023-01-12T05:00:36.862Z,97787.69
2023-01-12T05:03:04.463Z,97775.88
2023-01-12T05:05:33.539Z,97781.88
2023-01-12T05:08:22.240Z,97774.03
2023-01-12T05:10:51.684Z,97779.03
2023-01-12T05:13:20.113Z,97765.22
2023-01-12T05:15:47.618Z,97771.38
2023-01-12T05:18:15.742Z,97767.19
2023-01-12T05:20:43.247Z,97772.34
2023-01-12T05:23:10.949Z,97765.88
2023-01-12T05:25:38.431Z,97769.56
2023-01-12T05:28:05.962Z,97761.56
2023-01-12T05:30:33.507Z,97760.75
2023-01-12T05:33:01.079Z,97763.22
2023-01-12T05:35:28.575Z,97760.41
2023-01-12T05:37:56.803Z,97760.56
2023-01-12T05:40:24.784Z,97755.56
2023-01-12T05:43:11.200Z,97751.75
2023-01-12T05:45:38.759Z,97753.75
2023-01-12T05:48:06.641Z,97747.94
2023-01-12T05:50:34.125Z,97752.94
2023-01-12T05:53:10.610Z,97744.09
2023-01-12T05:55:38.808Z,97738.56
2023-01-12T05:58:06.366Z,97742.09
2023-01-12T06:00:33.946Z,97746.25
2023-01-12T06:03:02.979Z,97740.25
2023-01-12T06:05:30.557Z,97732.94
2023-01-12T06:07:58.517Z,97727.75
2023-01-12T06:10:26.739Z,97721.91
2023-01-12T06:13:13.089Z,97719.59
2023-01-12T06:15:40.653Z,97712.94
2023-01-12T06:18:08.152Z,97715.75
2023-01-12T06:20:35.668Z,97722.91
2023-01-12T06:23:07.404Z,97706.06
2023-01-12T06:25:34.908Z,97706.88
2023-01-12T06:28:04.891Z,97698.91
2023-01-12T06:30:32.364Z,97704.41
2023-01-12T06:33:03.008Z,97709.91
2023-01-12T06:35:30.559Z,97695.03
2023-01-12T06:37:58.263Z,97693.41
2023-01-12T06:40:25.756Z,97692.75
2023-01-12T06:42:53.325Z,97697.25
2023-01-12T06:45:20.845Z,97700.22
2023-01-12T06:47:50.487Z,97695.75
2023-01-12T06:50:18.135Z,97696.94
2023-01-12T06:52:45.632Z,97695.94
2023-01-12T06:55:13.382Z,97693.63
2023-01-12T06:57:40.900Z,97694.66
2023-01-12T07:00:09.768Z,97709.25
2023-01-12T07:02:37.308Z,97705.25
2023-01-12T07:05:05.780Z,97696.94
2023-01-12T07:07:33.269Z,97708.78
2023-01-12T07:10:00.748Z,97688.47
2023-01-12T07:12:28.282Z,97693.63
2023-01-12T07:14:58.777Z,97701.47
2023-01-12T07:17:26.249Z,97696.50
2023-01-12T07:19:53.733Z,97714.28
2023-01-12T07:22:21.239Z,97712.94
2023-01-12T07:24:48.781Z,97709.94
2023-01-12T07:27:16.285Z,97721.63
2023-01-12T07:29:43.801Z,97704.81
2023-01-12T07:32:11.316Z,97710.63
2023-01-12T07:34:38.883Z,97706.81
2023-01-12T07:37:06.885Z,97701.47
2023-01-12T07:39:34.358Z,97704.50
2023-01-12T07:42:20.205Z,97701.31
2023-01-12T07:44:47.680Z,97701.66
2023-01-12T07:47:15.287Z,97704.13
2023-01-12T07:49:42.853Z,97691.81
2023-01-12T07:52:14.482Z,97686.81
2023-01-12T07:54:42.041Z,97694.31
2023-01-12T07:57:11.526Z,97692.16
2023-01-12T07:59:39.508Z,97691.31
2023-01-12T08:02:13.790Z,97696.16
2023-01-12T08:04:42.054Z,97701.47
2023-01-12T08:07:10.282Z,97698.66
2023-01-12T08:09:38.094Z,97690.66
2023-01-12T08:12:06.024Z,97692.66
2023-01-12T08:14:39.091Z,97693.00
2023-01-12T08:17:16.357Z,97699.00
2023-01-12T08:19:55.245Z,97694.81
2023-01-12T08:22:30.634Z,97697.47
2023-01-12T08:25:06.549Z,97695.47
2023-01-12T08:27:39.061Z,97697.81
2023-01-12T08:30:08.670Z,97697.31
2023-01-12T08:32:37.696Z,97695.97
2023-01-12T08:35:06.128Z,97700.16
2023-01-12T08:37:35.240Z,97695.50
2023-01-12T08:40:05.341Z,97712.66
2023-01-12T08:42:32.853Z,97690.66
2023-01-12T08:45:00.402Z,97698.19
2023-01-12T08:47:30.270Z,97706.50
2023-01-12T08:50:00.177Z,97699.16
2023-01-12T08:52:29.486Z,97704.16
2023-01-12T08:54:57.021Z,97709.16
2023-01-12T08:57:24.584Z,97712.47
2023-01-12T08:59:52.194Z,97712.16
2023-01-12T09:02:19.998Z,97705.19
2023-01-12T09:04:49.006Z,97719.34
2023-01-12T09:07:17.069Z,97724.50
2023-01-12T09:09:44.588Z,97722.66
2023-01-12T09:12:12.074Z,97725.19
2023-01-12T09:14:39.755Z,97725.84
2023-01-12T09:17:07.710Z,97726.50
2023-01-12T09:19:35.182Z,97733.16
2023-01-12T09:22:02.725Z,97739.19
2023-01-12T09:24:30.282Z,97732.00
2023-01-12T09:26:57.828Z,97748.34
2023-01-12T09:29:25.332Z,97738.19
2023-01-12T09:31:52.924Z,97746.66
2023-01-12T09:34:20.439Z,97741.53
2023-01-12T09:36:48.801Z,97739.84
2023-01-12T09:39:32.513Z,97741.38
2023-01-12T09:42:18.969Z,97727.84
2023-01-12T09:45:08.932Z,97735.69
2023-01-12T09:47:56.217Z,97716.34
2023-01-12T09:50:46.288Z,97719.53
2023-01-12T09:53:41.039Z,97706.69
2023-01-12T09:56:08.507Z,97692.50
2023-01-12T09:59:09.003Z,97686.81
2023-01-12T10:01:37.575Z,97680.97
2023-01-12T10:04:06.369Z,97676.13
2023-01-12T10:06:35.592Z,97672.13
2023-01-12T10:09:13.389Z,97677.13
2023-01-12T10:12:08.731Z,97680.13
2023-01-12T10:14:58.042Z,97680.47
2023-01-12T10:18:02.574Z,97666.78
2023-01-12T10:20:41.785Z,97678.25
2023-01-12T10:23:09.264Z,97672.75
2023-01-12T10:25:50.567Z,97670.06
2023-01-12T10:28:24.701Z,97670.91
2023-01-12T10:30:56.203Z,97673.75
2023-01-12T10:33:27.755Z,97673.06
2023-01-12T10:36:14.164Z,97673.25
2023-01-12T10:38:59.455Z,97681.09
2023-01-12T10:41:29.113Z,97662.69
2023-01-12T10:43:56.466Z,97665.03
2023-01-12T10:46:27.420Z,97661.66
2023-01-12T10:49:17.949Z,97653.97
2023-01-12T10:51:53.625Z,97647.94
2023-01-12T10:54:34.403Z,97639.25
2023-01-12T10:57:03.492Z,97653.28
2023-01-12T10:59:38.384Z,97643.41
2023-01-12T11:02:06.813Z,97636.72
2023-01-12T11:04:50.212Z,97647.56
2023-01-12T11:07:29.335Z,97641.34
2023-01-12T11:10:25.821Z,97644.91
2023-01-12T11:13:06.210Z,97649.06
2023-01-12T11:15:38.864Z,97631.75
2023-01-12T11:18:40.787Z,97628.38
2023-01-12T11:21:13.002Z,97633.00
2023-01-12T11:24:02.700Z,97639.16
2023-01-12T11:26:46.074Z,97632.72
2023-01-12T11:29:56.811Z,97638.03
2023-01-12T11:32:54.788Z,97635.97
2023-01-12T11:35:44.163Z,97609.72
2023-01-12T11:38:27.516Z,97611.50
2023-01-12T11:40:58.383Z,97621.06
2023-01-12T11:43:50.437Z,97613.47
2023-01-12T11:46:55.997Z,97615.78
2023-01-12T11:49:46.264Z,97611.44
2023-01-12T11:52:16.264Z,97607.16
2023-01-12T11:54:44.157Z,97619.78
2023-01-12T11:57:52.903Z,97614.03
2023-01-12T12:00:49.219Z,97618.41
2023-01-12T12:03:44.600Z,97602.59
2023-01-12T12:06:48.673Z,97598.91
2023-01-12T12:09:44.306Z,97589.81
2023-01-12T12:12:24.463Z,97589.38
2023-01-12T12:15:28.069Z,97591.66
2023-01-12T12:18:25.865Z,97580.06
2023-01-12T12:21:44.115Z,97588.00
2023-01-12T12:24:46.882Z,97576.38
2023-01-12T12:27:38.388Z,97572.41
2023-01-12T12:30:33.912Z,97576.75
2023-01-12T12:33:54.538Z,97579.97
2023-01-12T12:36:39.899Z,97578.47
2023-01-12T12:39:16.307Z,97571.00
2023-01-12T12:42:39.479Z,97575.63
2023-01-12T12:45:37.174Z,97578.94
2023-01-12T12:48:37.524Z,97573.38
2023-01-12T12:51:13.231Z,97559.94
2023-01-12T12:53:50.814Z,97564.91
2023-01-12T12:56:22.814Z,97563.63
2023-01-12T12:58:52.104Z,97556.25
2023-01-12T13:01:27.104Z,97541.50
2023-01-12T13:04:06.088Z,97557.47
2023-01-12T13:06:49.391Z,97543.53
2023-01-12T13:09:16.745Z,97536.50
2023-01-12T13:12:00.023Z,97551.63
2023-01-12T13:14:40.124Z,97548.78
2023-01-12T13:17:19.883Z,97541.28
2023-01-12T13:20:02.061Z,97537.91
2023-01-12T13:22:39.763Z,97527.38
2023-01-12T13:25:16.614Z,97527.22
2023-01-12T13:27:49.742Z,97528.69
2023-01-12T13:30:29.183Z,97531.72
2023-01-12T13:33:17.395Z,97535.41
2023-01-12T13:35:45.072Z,97543.97
2023-01-12T13:38:33.846Z,97541.50
2023-01-12T13:41:13.552Z,97537.31
2023-01-12T13:43:57.730Z,97547.84
2023-01-12T13:46:35.740Z,97554.31
2023-01-12T13:49:18.829Z,97556.16
2023-01-12T13:52:00.816Z,97554.47
2023-01-12T13:54:28.963Z,97553.44
2023-01-12T13:57:16.877Z,97541.78
2023-01-12T14:00:18.984Z,97538.94
2023-01-12T14:02:46.605Z,97537.44
2023-01-12T14:05:46.652Z,97543.81
2023-01-12T14:08:51.961Z,97544.44
2023-01-12T14:11:54.664Z,97539.09
2023-01-12T14:15:10.854Z,97535.97
2023-01-12T14:17:50.240Z,97537.81
2023-01-12T14:20:27.902Z,97546.19
2023-01-12T14:23:30.696Z,97545.91
2023-01-12T14:26:10.342Z,97543.53
2023-01-12T14:28:44.715Z,97535.13
2023-01-12T14:31:39.583Z,97537.06
2023-01-12T14:34:22.004Z,97538.19
2023-01-12T14:36:49.756Z,97526.84
2023-01-12T14:39:23.805Z,97529.31
2023-01-12T14:42:15.380Z,97531.63
2023-01-12T14:45:14.845Z,97521.75
2023-01-12T14:47:42.604Z,97529.31
2023-01-12T14:50:13.086Z,97529.78
2023-01-12T14:52:48.104Z,97531.72
2023-01-12T14:55:24.702Z,97533.84
2023-01-12T14:58:00.127Z,97528.50
2023-01-12T15:00:32.567Z,97534.97
2023-01-12T15:03:02.353Z,97531.97
2023-01-12T15:05:33.423Z,97536.34
2023-01-12T15:08:26.696Z,97534.13
2023-01-12T15:11:09.436Z,97530.44
2023-01-12T15:13:38.069Z,97526.59
2023-01-12T15:16:25.362Z,97534.59
2023-01-12T15:19:11.821Z,97527.97
2023-01-12T15:22:01.487Z,97534.31
2023-01-12T15:24:50.413Z,97531.00
2023-01-12T15:27:22.611Z,97532.63
2023-01-12T15:29:50.672Z,97529.13
2023-01-12T15:32:41.457Z,97527.50
2023-01-12T15:35:23.951Z,97526.94
2023-01-12T15:37:55.068Z,97513.91
2023-01-12T15:40:24.540Z,97521.13
2023-01-12T15:42:53.482Z,97520.13
2023-01-12T15:45:39.688Z,97516.81
2023-01-12T15:48:08.378Z,97524.63
2023-01-12T15:50:42.213Z,97518.09
2023-01-12T15:53:12.364Z,97522.06
2023-01-12T15:55:41.253Z,97515.03
2023-01-12T15:58:08.829Z,97511.94
2023-01-12T16:00:36.751Z,97515.13
2023-01-12T16:03:04.507Z,97507.47
2023-01-12T16:05:32.272Z,97506.84
2023-01-12T16:07:59.809Z,97511.16
2023-01-12T16:10:30.157Z,97504.69
2023-01-12T16:13:01.754Z,97502.66
2023-01-12T16:15:30.351Z,97510.19
2023-01-12T16:17:57.889Z,97503.22
2023-01-12T16:20:25.402Z,97494.16
2023-01-12T16:22:52.901Z,97506.66
2023-01-12T16:25:20.514Z,97501.91
2023-01-12T16:27:48.022Z,97506.22
2023-01-12T16:30:16.051Z,97508.25
2023-01-12T16:32:46.335Z,97513.13
2023-01-12T16:35:15.570Z,97506.31
2023-01-12T16:37:44.394Z,97509.47
2023-01-12T16:40:12.619Z,97512.94
2023-01-12T16:42:40.152Z,97509.63
2023-01-12T16:45:08.660Z,97508.63
2023-01-12T16:47:36.167Z,97510.66
2023-01-12T16:50:04.192Z,97508.81
2023-01-12T16:52:31.751Z,97508.34
2023-01-12T16:54:59.248Z,97509.31
2023-01-12T16:57:26.748Z,97509.53
2023-01-12T16:59:54.218Z,97508.41
2023-01-12T17:02:22.051Z,97502.28
2023-01-12T17:04:52.140Z,97503.22
2023-01-12T17:07:20.013Z,97513.28
2023-01-12T17:09:47.594Z,97516.41
2023-01-12T17:12:15.187Z,97507.56
2023-01-12T17:14:42.811Z,97489.53
2023-01-12T17:17:12.284Z,97489.53
2023-01-12T17:19:44.766Z,97488.31
2023-01-12T17:22:13.311Z,97478.47
2023-01-12T17:24:41.677Z,97475.97
2023-01-12T17:27:10.363Z,97472.00
2023-01-12T17:29:38.103Z,97477.34
2023-01-12T17:32:08.084Z,97481.03
2023-01-12T17:34:43.112Z,97489.56
2023-01-12T17:37:11.118Z,97479.06
2023-01-12T17:39:40.438Z,97479.53
2023-01-12T17:42:28.351Z,97480.56
2023-01-12T17:44:55.843Z,97476.03
2023-01-12T17:47:24.577Z,97471.41
2023-01-12T17:49:54.000Z,97474.91
2023-01-12T17:52:21.733Z,97467.72
2023-01-12T17:54:52.297Z,97474.09
2023-01-12T17:57:19.995Z,97473.91
2023-01-12T17:59:49.741Z,97475.75
2023-01-12T18:02:18.128Z,97476.28
2023-01-12T18:04:46.424Z,97467.44
2023-01-12T18:07:13.947Z,97465.66
2023-01-12T18:09:41.949Z,97460.97
2023-01-12T18:12:10.487Z,97480.19
2023-01-12T18:14:38.348Z,97465.03
2023-01-12T18:17:05.860Z,97465.84
2023-01-12T18:19:33.540Z,97470.00
2023-01-12T18:22:05.870Z,97460.81
2023-01-12T18:24:34.567Z,97466.44
2023-01-12T18:27:02.967Z,97461.56
2023-01-12T18:29:30.605Z,97452.16
2023-01-12T18:31:58.091Z,97460.00
2023-01-12T18:34:25.636Z,97453.84
2023-01-12T18:36:53.120Z,97451.00
2023-01-12T18:39:21.109Z,97456.78
2023-01-12T18:42:08.609Z,97454.31
2023-01-12T18:44:40.029Z,97459.66
2023-01-12T18:47:25.804Z,97447.78
2023-01-12T18:49:57.445Z,97455.63
2023-01-12T18:52:57.304Z,97454.13
2023-01-12T18:55:25.235Z,97444.28
2023-01-12T18:57:52.782Z,97441.63
2023-01-12T19:00:22.275Z,97439.59
2023-01-12T19:02:49.813Z,97443.09
2023-01-12T19:05:25.668Z,97443.56
2023-01-12T19:07:59.299Z,97448.72
2023-01-12T19:10:29.414Z,97450.38
2023-01-12T19:13:17.329Z,97449.19
2023-01-12T19:16:03.478Z,97447.69
2023-01-12T19:18:31.176Z,97432.13
2023-01-12T19:21:21.480Z,97434.81
2023-01-12T19:24:07.636Z,97428.91
2023-01-12T19:26:53.713Z,97424.78
2023-01-12T19:29:21.276Z,97414.09
2023-01-12T19:31:48.781Z,97422.28
2023-01-12T19:34:16.499Z,97423.78
2023-01-12T19:36:44.324Z,97421.75
2023-01-12T19:39:12.780Z,97423.22
2023-01-12T19:41:58.903Z,97427.91
2023-01-12T19:44:26.393Z,97435.28
2023-01-12T19:46:53.862Z,97442.47
2023-01-12T19:49:21.354Z,97430.13
2023-01-12T19:51:49.734Z,97436.09
2023-01-12T19:54:17.255Z,97449.94
2023-01-12T19:56:47.032Z,97434.63
2023-01-12T19:59:14.654Z,97430.59
2023-01-12T20:01:42.227Z,97435.38
2023-01-12T20:04:09.787Z,97437.88
2023-01-12T20:06:37.312Z,97417.50
2023-01-12T20:09:04.890Z,97430.88
2023-01-12T20:11:32.431Z,97428.84
2023-01-12T20:14:00.000Z,97423.31
2023-01-12T20:16:27.568Z,97418.44
2023-01-12T20:18:56.963Z,97418.06
2023-01-12T20:21:24.445Z,97412.72
2023-01-12T20:23:51.958Z,97402.50
2023-01-12T20:26:19.577Z,97395.47
2023-01-12T20:28:47.150Z,97395.47
2023-01-12T20:31:16.032Z,97392.44
2023-01-12T20:33:43.627Z,97392.63
2023-01-12T20:36:13.626Z,97380.28
2023-01-12T20:38:41.891Z,97381.75
2023-01-12T20:41:10.624Z,97387.09
2023-01-12T20:43:38.257Z,97373.72
2023-01-12T20:46:14.031Z,97381.09
2023-01-12T20:48:42.887Z,97367.56
2023-01-12T20:51:13.562Z,97374.53
2023-01-12T20:53:41.447Z,97369.03
2023-01-12T20:56:09.938Z,97370.41
2023-01-12T20:58:37.504Z,97367.19
2023-01-12T21:01:12.815Z,97354.28
2023-01-12T21:03:41.076Z,97346.47
2023-01-12T21:06:15.599Z,97343.41
2023-01-12T21:08:45.733Z,97353.00
2023-01-12T21:11:17.062Z,97341.00
2023-01-12T21:13:45.471Z,97336.31
2023-01-12T21:16:18.313Z,97337.97
2023-01-12T21:18:46.458Z,97345.91
2023-01-12T21:21:14.065Z,97335.13
2023-01-12T21:23:41.552Z,97333.28
2023-01-12T21:26:10.789Z,97330.25
2023-01-12T21:28:40.185Z,97330.44
2023-01-12T21:31:10.506Z,97340.47
2023-01-12T21:33:38.492Z,97313.75
2023-01-12T21:36:06.669Z,97326.47
2023-01-12T21:38:34.196Z,97312.00
2023-01-12T21:41:05.928Z,97311.19
2023-01-12T21:43:34.512Z,97312.91
2023-01-12T21:46:09.257Z,97318.78
2023-01-12T21:48:37.060Z,97310.59
2023-01-12T21:51:07.581Z,97304.06
2023-01-12T21:53:35.616Z,97310.34
2023-01-12T21:56:05.069Z,97300.09
2023-01-12T21:58:35.389Z,97292.06
2023-01-12T22:01:14.903Z,97294.31
2023-01-12T22:03:42.832Z,97304.63
2023-01-12T22:06:12.752Z,97300.84
2023-01-12T22:08:41.827Z,97308.25
2023-01-12T22:11:14.111Z,97295.50
2023-01-12T22:13:43.345Z,97306.59
2023-01-12T22:16:14.350Z,97298.06
2023-01-12T22:18:49.226Z,97301.94
2023-01-12T22:21:19.146Z,97295.88
2023-01-12T22:23:47.575Z,97303.16
2023-01-12T22:26:16.760Z,97302.50
2023-01-12T22:28:47.611Z,97298.91
2023-01-12T22:31:24.370Z,97293.00
2023-01-12T22:34:04.759Z,97291.53
2023-01-12T22:36:35.322Z,97288.22
2023-01-12T22:39:05.695Z,97289.69
2023-01-12T22:41:33.179Z,97298.63
2023-01-12T22:44:00.871Z,97286.72
2023-01-12T22:46:28.706Z,97291.16
2023-01-12T22:48:59.301Z,97300.50
2023-01-12T22:51:29.499Z,97281.97
2023-01-12T22:53:57.746Z,97303.50
2023-01-12T22:56:25.736Z,97300.03
2023-01-12T22:58:55.414Z,97284.81
2023-01-12T23:01:25.599Z,97275.59
2023-01-12T23:03:57.732Z,97277.25
2023-01-12T23:06:26.727Z,97279.94
2023-01-12T23:08:54.678Z,97278.06
2023-01-12T23:11:27.064Z,97277.81
2023-01-12T23:13:55.034Z,97276.97
2023-01-12T23:16:23.465Z,97265.94
2023-01-12T23:18:51.576Z,97268.50
2023-01-12T23:21:27.871Z,97271.09
2023-01-12T23:23:58.842Z,97262.69
2023-01-12T23:26:33.564Z,97270.63
2023-01-12T23:29:03.097Z,97271.53
2023-01-12T23:31:33.644Z,97283.63
2023-01-12T23:34:01.790Z,97270.53
2023-01-12T23:36:31.028Z,97268.78
2023-01-12T23:39:05.206Z,97260.47
2023-01-12T23:41:37.816Z,97275.41
2023-01-12T23:44:09.221Z,97251.91
2023-01-12T23:46:40.447Z,97255.44
2023-01-12T23:49:09.662Z,97251.38
2023-01-12T23:51:37.404Z,97250.81
2023-01-12T23:54:05.259Z,97248.41
2023-01-12T23:56:34.627Z,97258.19
2023-01-12T23:59:02.459Z,97245.28
